(°C)
-10°
-11°
-11°
-11°
-11°
-10°
-10°
(°C)
-15°
-16°
-16°
-16°
-16°
-16°
-15°
V
VSV
VSV
SV
SV
SSV
SSV
(km/h)
7-17
7-18
7-18
8-19
8-22
9-24
12-26
(mm)
0
0
0
0
0
0
0
(%)
0
0
0
0
0
0
0

Elevația soarelui

/ -54.8°
sun-icon
UV 0
07:57
15:48
Primul pătrar (173°)
14:33
08:20

METAR pentru 55.61°N 49.28°E (UWKD)

Ora Condiții Temperatură/
Punctul de rouă
Vânt Vizibilitate Vremea Nori Presiune Schimbă Brut
MVFR -7°C / °C 260º 6kt >10km Light Snow 1.00mm precipitation Vertical Visibility of 0ft. 1000 No Significant change. Runway 29: Frost, 51-100% contamination with <1mm, friction coefficient 0.45. UWKD 162100Z 26003MPS 9999 -SN BKN023 M07/M10 Q1000 R29/390045 NOSIG RMK QFE739/0986
VFR -7°C / °C 260º 8kt >10km - Clouds and Visibility OK 1000 No Significant change. Runway 29: Frost, 51-100% contamination with <1mm, friction coefficient 0.45. UWKD 162030Z 26004MPS CAVOK M07/M10 Q1000 R29/390045 NOSIG RMK QFE739/0986
VFR -7°C / °C 260º 8kt >10km - Broken Clouds 4800ft 1000 No Significant change. Runway 29: Frost, 51-100% contamination with <1mm, friction coefficient 0.45. UWKD 162000Z 26004MPS 9999 BKN048 M07/M10 Q1000 R29/390045 NOSIG RMK QFE739/0986
VFR -7°C / °C 270º 10kt >10km - Broken Clouds 4500ft 1000 No Significant change. Runway 29: Frost, 51-100% contamination with <1mm, friction coefficient 0.45. UWKD 161930Z 27005MPS 9999 BKN045 M07/M10 Q1000 R29/390045 NOSIG RMK QFE739/0986
VFR -7°C / °C 280º 12kt >10km - Broken Clouds 4500ft 1000 No Significant change. Runway 29: Frost, 51-100% contamination with <1mm, friction coefficient 0.45. UWKD 161900Z 28006MPS 9999 BKN045 M07/M10 Q1000 R29/390045 NOSIG RMK QFE739/0985
VFR -7°C / °C 280º 10kt >10km - Broken Clouds 4700ft 1000 No Significant change. Runway 29: Frost, 51-100% contamination with <1mm, friction coefficient 0.45. UWKD 161830Z 28005MPS 9999 BKN047 M07/M10 Q1000 R29/390045 NOSIG RMK QFE739/0985
VFR -7°C / °C 300º 10kt >10km - Broken Clouds 4200ft 1000 No Significant change. Runway 29: Frost, 51-100% contamination with <1mm, friction coefficient 0.45. UWKD 161800Z 30005MPS 9999 BKN042 M07/M11 Q1000 R29/390045 NOSIG RMK QFE739/0985
VFR -7°C / °C 300º 10kt >10km - Broken Clouds 4300ft 999 No Significant change. Runway 29: Frost, 51-100% contamination with <1mm, friction coefficient 0.45. UWKD 161730Z 30005MPS 9999 BKN043 M07/M12 Q0999 R29/390045 NOSIG RMK QFE738/0985
VFR -6°C / °C 310º 12kt >10km - Overcast 3900ft 999 No Significant change. Runway 29: Frost, 51-100% contamination with <1mm, friction coefficient 0.42. UWKD 161700Z 31006MPS 9999 OVC039 M06/M11 Q0999 R29/390042 NOSIG RMK QFE738/0984
VFR -6°C / °C 310º 14kt >10km - Overcast 4300ft 999 No Significant change. Runway 29: Frost, 51-100% contamination with <1mm, friction coefficient 0.42. UWKD 161630Z 31007MPS 9999 OVC043 M06/M10 Q0999 R29/390042 NOSIG RMK QFE738/0984
VFR -6°C / °C 310º 14kt >10km - Overcast 3800ft 999 No Significant change. Runway 29: Frost, 51-100% contamination with <1mm, friction coefficient 0.42. UWKD 161600Z 31007MPS 9999 OVC038 M06/M10 Q0999 R29/390042 NOSIG RMK QFE738/0984
VFR -6°C / -9°C 310º 14kt >10km Light Snow 1.00mm precipitation Vertical Visibility of 0ft. 998 No Significant change. Runway 29: Frost, 51-100% contamination with <1mm, friction coefficient 0.42. UWKD 161530Z 31007MPS 9999 -SN BKN038 M06/M09 Q0998 R29/390042 NOSIG RMK QFE738/0984
MVFR -6°C / -9°C 310º 14kt >10km Light Snow 1.00mm precipitation Vertical Visibility of 0ft. 998 No Significant change. Runway 29: Frost, 51-100% contamination with <1mm, friction coefficient 0.42. UWKD 161500Z 31007MPS 9999 -SN BKN021 M06/M09 Q0998 R29/390042 NOSIG RMK QFE737/0983
MVFR -6°C / -9°C 320º 14kt >10km Light Snow 1.00mm precipitation Vertical Visibility of 0ft. 997 No Significant change. Runway 29: Dry snow, 11-25% contamination with 3mm, friction coefficient 0.40. UWKD 161430Z 32007MPS 9999 -SN BKN030 M06/M09 Q0997 R29/420340 NOSIG RMK QFE737/0983
MVFR -6°C / -9°C 310º 16kt >10km Light Snow 1.00mm precipitation Vertical Visibility of 0ft. 996 No Significant change. Runway 29: Dry snow, 11-25% contamination with 3mm, friction coefficient 0.40. UWKD 161400Z 31008MPS 9999 -SN BKN022 M06/M09 Q0996 R29/420340 NOSIG RMK QFE736/0982
MVFR -6°C / -9°C 310º 14kt 6000m Light Snow 1.00mm precipitation Vertical Visibility of 0ft. 996 No Significant change. Runway 29: Dry snow, 11-25% contamination with 3mm, friction coefficient 0.40. UWKD 161330Z 31007MPS 6000 -SN BKN020 M06/M09 Q0996 R29/420340 NOSIG RMK QFE736/0981
VFR -6°C / °C 310º 14kt >10km Light Snow 1.00mm precipitation Vertical Visibility of 0ft. 996 No Significant change. Runway 29: Dry snow, 11-25% contamination with 3mm, friction coefficient 0.40. UWKD 161300Z 31007MPS 9999 -SN SCT025 M06/M10 Q0996 R29/420340 NOSIG RMK QFE736/0981
VFR -6°C / °C 310º 14kt >10km Light Snow 1.00mm precipitation Vertical Visibility of 0ft. 995 No Significant change. Runway 29: Dry snow, 11-25% contamination with 3mm, friction coefficient 0.39. UWKD 161230Z 31007MPS 9999 -SN SCT023 M06/M10 Q0995 R29/420339 NOSIG RMK QFE736/0981
VFR -6°C / °C 320º 14kt >10km Light Snow 1.00mm precipitation Vertical Visibility of 0ft. 995 No Significant change. Runway 29: Dry snow, 11-25% contamination with 3mm, friction coefficient 0.39. UWKD 161200Z 32007MPS 9999 -SN SCT024 M06/M10 Q0995 R29/420339 NOSIG RMK QFE735/0980
MVFR -6°C / -9°C 310º 14kt 9000m Light Snow 1.00mm precipitation Vertical Visibility of 0ft. 994 No Significant change. Runway 29: Dry snow, 11-25% contamination with 3mm, friction coefficient 0.39. UWKD 161130Z 31007MPS 9000 -SN OVC022 M06/M09 Q0994 R29/420339 NOSIG RMK QFE735/0980
IFR -6°C / -9°C 310º 14kt 1700m. Runway 29: Visual range is 1400m and decreasing. blowing Snow Snow 3.00mm precipitation Vertical Visibility of 0ft. 994 No Significant change. Runway 29: Dry snow, 11-25% contamination with 3mm, friction coefficient 0.39. UWKD 161100Z 31007MPS 1700 1400SE R29/1400D SN BLSN OVC016 M06/M09 Q0994 R29/420339 NOSIG RMK QFE735/0980
MVFR -6°C / -9°C 310º 14kt 9000m Light Snow 1.00mm precipitation Vertical Visibility of 0ft. 994 No Significant change. Runway 29: Dry snow, 11-25% contamination with 3mm, friction coefficient 0.39. UWKD 161030Z 31007MPS 9000 -SN OVC013 M06/M09 Q0994 R29/420339 NOSIG RMK QFE734/0979
VFR -6°C / -9°C 310º 14kt >10km Light Snow 1.00mm precipitation Vertical Visibility of 0ft. 994 No Significant change. Runway 29: Dry snow, 11-25% contamination with 3mm, friction coefficient 0.39. UWKD 161000Z 31007MPS 9999 -SN BKN049 M06/M09 Q0994 R29/420339 NOSIG RMK QFE734/0979
VFR -6°C / -9°C 310º 12kt >10km Light Snow 1.00mm precipitation Vertical Visibility of 0ft. 993 No Significant change. Runway 29: Dry snow, 11-25% contamination with 3mm, friction coefficient 0.39. UWKD 160930Z 31006MPS 9999 -SN OVC040 M06/M09 Q0993 R29/420339 NOSIG RMK QFE734/0979

MVFR

-7°C / °C

[Mai mult]
Vânt 260º 6kt
Vizibilitate >10km
Vremea Light Snow 1.00mm precipitation
Nori Vertical Visibility of 0ft.
Presiune 1000
Schimbă No Significant change. Runway 29: Frost, 51-100% contamination with <1mm, friction coefficient 0.45.
Brut UWKD 162100Z 26003MPS 9999 -SN BKN023 M07/M10 Q1000 R29/390045 NOSIG RMK QFE739/0986

VFR

-7°C / °C

[Mai mult]
Vânt 260º 8kt
Vizibilitate >10km
Vremea -
Nori Clouds and Visibility OK
Presiune 1000
Schimbă No Significant change. Runway 29: Frost, 51-100% contamination with <1mm, friction coefficient 0.45.
Brut UWKD 162030Z 26004MPS CAVOK M07/M10 Q1000 R29/390045 NOSIG RMK QFE739/0986

VFR

-7°C / °C

[Mai mult]
Vânt 260º 8kt
Vizibilitate >10km
Vremea -
Nori Broken Clouds 4800ft
Presiune 1000
Schimbă No Significant change. Runway 29: Frost, 51-100% contamination with <1mm, friction coefficient 0.45.
Brut UWKD 162000Z 26004MPS 9999 BKN048 M07/M10 Q1000 R29/390045 NOSIG RMK QFE739/0986

VFR

-7°C / °C

[Mai mult]
Vânt 270º 10kt
Vizibilitate >10km
Vremea -
Nori Broken Clouds 4500ft
Presiune 1000
Schimbă No Significant change. Runway 29: Frost, 51-100% contamination with <1mm, friction coefficient 0.45.
Brut UWKD 161930Z 27005MPS 9999 BKN045 M07/M10 Q1000 R29/390045 NOSIG RMK QFE739/0986

VFR

-7°C / °C

[Mai mult]
Vânt 280º 12kt
Vizibilitate >10km
Vremea -
Nori Broken Clouds 4500ft
Presiune 1000
Schimbă No Significant change. Runway 29: Frost, 51-100% contamination with <1mm, friction coefficient 0.45.
Brut UWKD 161900Z 28006MPS 9999 BKN045 M07/M10 Q1000 R29/390045 NOSIG RMK QFE739/0985

VFR

-7°C / °C

[Mai mult]
Vânt 280º 10kt
Vizibilitate >10km
Vremea -
Nori Broken Clouds 4700ft
Presiune 1000
Schimbă No Significant change. Runway 29: Frost, 51-100% contamination with <1mm, friction coefficient 0.45.
Brut UWKD 161830Z 28005MPS 9999 BKN047 M07/M10 Q1000 R29/390045 NOSIG RMK QFE739/0985

VFR

-7°C / °C

[Mai mult]
Vânt 300º 10kt
Vizibilitate >10km
Vremea -
Nori Broken Clouds 4200ft
Presiune 1000
Schimbă No Significant change. Runway 29: Frost, 51-100% contamination with <1mm, friction coefficient 0.45.
Brut UWKD 161800Z 30005MPS 9999 BKN042 M07/M11 Q1000 R29/390045 NOSIG RMK QFE739/0985

VFR

-7°C / °C

[Mai mult]
Vânt 300º 10kt
Vizibilitate >10km
Vremea -
Nori Broken Clouds 4300ft
Presiune 999
Schimbă No Significant change. Runway 29: Frost, 51-100% contamination with <1mm, friction coefficient 0.45.
Brut UWKD 161730Z 30005MPS 9999 BKN043 M07/M12 Q0999 R29/390045 NOSIG RMK QFE738/0985

VFR

-6°C / °C

[Mai mult]
Vânt 310º 12kt
Vizibilitate >10km
Vremea -
Nori Overcast 3900ft
Presiune 999
Schimbă No Significant change. Runway 29: Frost, 51-100% contamination with <1mm, friction coefficient 0.42.
Brut UWKD 161700Z 31006MPS 9999 OVC039 M06/M11 Q0999 R29/390042 NOSIG RMK QFE738/0984

VFR

-6°C / °C

[Mai mult]
Vânt 310º 14kt
Vizibilitate >10km
Vremea -
Nori Overcast 4300ft
Presiune 999
Schimbă No Significant change. Runway 29: Frost, 51-100% contamination with <1mm, friction coefficient 0.42.
Brut UWKD 161630Z 31007MPS 9999 OVC043 M06/M10 Q0999 R29/390042 NOSIG RMK QFE738/0984

VFR

-6°C / °C

[Mai mult]
Vânt 310º 14kt
Vizibilitate >10km
Vremea -
Nori Overcast 3800ft
Presiune 999
Schimbă No Significant change. Runway 29: Frost, 51-100% contamination with <1mm, friction coefficient 0.42.
Brut UWKD 161600Z 31007MPS 9999 OVC038 M06/M10 Q0999 R29/390042 NOSIG RMK QFE738/0984

VFR

-6°C / -9°C

[Mai mult]
Vânt 310º 14kt
Vizibilitate >10km
Vremea Light Snow 1.00mm precipitation
Nori Vertical Visibility of 0ft.
Presiune 998
Schimbă No Significant change. Runway 29: Frost, 51-100% contamination with <1mm, friction coefficient 0.42.
Brut UWKD 161530Z 31007MPS 9999 -SN BKN038 M06/M09 Q0998 R29/390042 NOSIG RMK QFE738/0984

MVFR

-6°C / -9°C

[Mai mult]
Vânt 310º 14kt
Vizibilitate >10km
Vremea Light Snow 1.00mm precipitation
Nori Vertical Visibility of 0ft.
Presiune 998
Schimbă No Significant change. Runway 29: Frost, 51-100% contamination with <1mm, friction coefficient 0.42.
Brut UWKD 161500Z 31007MPS 9999 -SN BKN021 M06/M09 Q0998 R29/390042 NOSIG RMK QFE737/0983

MVFR

-6°C / -9°C

[Mai mult]
Vânt 320º 14kt
Vizibilitate >10km
Vremea Light Snow 1.00mm precipitation
Nori Vertical Visibility of 0ft.
Presiune 997
Schimbă No Significant change. Runway 29: Dry snow, 11-25% contamination with 3mm, friction coefficient 0.40.
Brut UWKD 161430Z 32007MPS 9999 -SN BKN030 M06/M09 Q0997 R29/420340 NOSIG RMK QFE737/0983

MVFR

-6°C / -9°C

[Mai mult]
Vânt 310º 16kt
Vizibilitate >10km
Vremea Light Snow 1.00mm precipitation
Nori Vertical Visibility of 0ft.
Presiune 996
Schimbă No Significant change. Runway 29: Dry snow, 11-25% contamination with 3mm, friction coefficient 0.40.
Brut UWKD 161400Z 31008MPS 9999 -SN BKN022 M06/M09 Q0996 R29/420340 NOSIG RMK QFE736/0982

MVFR

-6°C / -9°C

[Mai mult]
Vânt 310º 14kt
Vizibilitate 6000m
Vremea Light Snow 1.00mm precipitation
Nori Vertical Visibility of 0ft.
Presiune 996
Schimbă No Significant change. Runway 29: Dry snow, 11-25% contamination with 3mm, friction coefficient 0.40.
Brut UWKD 161330Z 31007MPS 6000 -SN BKN020 M06/M09 Q0996 R29/420340 NOSIG RMK QFE736/0981

VFR

-6°C / °C

[Mai mult]
Vânt 310º 14kt
Vizibilitate >10km
Vremea Light Snow 1.00mm precipitation
Nori Vertical Visibility of 0ft.
Presiune 996
Schimbă No Significant change. Runway 29: Dry snow, 11-25% contamination with 3mm, friction coefficient 0.40.
Brut UWKD 161300Z 31007MPS 9999 -SN SCT025 M06/M10 Q0996 R29/420340 NOSIG RMK QFE736/0981

VFR

-6°C / °C

[Mai mult]
Vânt 310º 14kt
Vizibilitate >10km
Vremea Light Snow 1.00mm precipitation
Nori Vertical Visibility of 0ft.
Presiune 995
Schimbă No Significant change. Runway 29: Dry snow, 11-25% contamination with 3mm, friction coefficient 0.39.
Brut UWKD 161230Z 31007MPS 9999 -SN SCT023 M06/M10 Q0995 R29/420339 NOSIG RMK QFE736/0981

VFR

-6°C / °C

[Mai mult]
Vânt 320º 14kt
Vizibilitate >10km
Vremea Light Snow 1.00mm precipitation
Nori Vertical Visibility of 0ft.
Presiune 995
Schimbă No Significant change. Runway 29: Dry snow, 11-25% contamination with 3mm, friction coefficient 0.39.
Brut UWKD 161200Z 32007MPS 9999 -SN SCT024 M06/M10 Q0995 R29/420339 NOSIG RMK QFE735/0980

MVFR

-6°C / -9°C

[Mai mult]
Vânt 310º 14kt
Vizibilitate 9000m
Vremea Light Snow 1.00mm precipitation
Nori Vertical Visibility of 0ft.
Presiune 994
Schimbă No Significant change. Runway 29: Dry snow, 11-25% contamination with 3mm, friction coefficient 0.39.
Brut UWKD 161130Z 31007MPS 9000 -SN OVC022 M06/M09 Q0994 R29/420339 NOSIG RMK QFE735/0980

IFR

-6°C / -9°C

[Mai mult]
Vânt 310º 14kt
Vizibilitate 1700m. Runway 29: Visual range is 1400m and decreasing.
Vremea blowing Snow Snow 3.00mm precipitation
Nori Vertical Visibility of 0ft.
Presiune 994
Schimbă No Significant change. Runway 29: Dry snow, 11-25% contamination with 3mm, friction coefficient 0.39.
Brut UWKD 161100Z 31007MPS 1700 1400SE R29/1400D SN BLSN OVC016 M06/M09 Q0994 R29/420339 NOSIG RMK QFE735/0980

MVFR

-6°C / -9°C

[Mai mult]
Vânt 310º 14kt
Vizibilitate 9000m
Vremea Light Snow 1.00mm precipitation
Nori Vertical Visibility of 0ft.
Presiune 994
Schimbă No Significant change. Runway 29: Dry snow, 11-25% contamination with 3mm, friction coefficient 0.39.
Brut UWKD 161030Z 31007MPS 9000 -SN OVC013 M06/M09 Q0994 R29/420339 NOSIG RMK QFE734/0979

VFR

-6°C / -9°C

[Mai mult]
Vânt 310º 14kt
Vizibilitate >10km
Vremea Light Snow 1.00mm precipitation
Nori Vertical Visibility of 0ft.
Presiune 994
Schimbă No Significant change. Runway 29: Dry snow, 11-25% contamination with 3mm, friction coefficient 0.39.
Brut UWKD 161000Z 31007MPS 9999 -SN BKN049 M06/M09 Q0994 R29/420339 NOSIG RMK QFE734/0979

VFR

-6°C / -9°C

[Mai mult]
Vânt 310º 12kt
Vizibilitate >10km
Vremea Light Snow 1.00mm precipitation
Nori Vertical Visibility of 0ft.
Presiune 993
Schimbă No Significant change. Runway 29: Dry snow, 11-25% contamination with 3mm, friction coefficient 0.39.
Brut UWKD 160930Z 31006MPS 9999 -SN OVC040 M06/M09 Q0993 R29/420339 NOSIG RMK QFE734/0979

TAF pentru 55.61°N 49.28°E (UWKD)

From till


Maximum Temperature -6ºC on . Minimum Temperature -10ºC on .
From till Wind 240º 10kt. Visibility 10km or more. Broken Clouds 1600ft.
Temporarly from till Visibility 5000m. Light Snow .
Becoming from till Wind 200º 10kt. Gust 23kt. Visibility 10km or more. Broken Clouds 1600ft.
Becoming from till Wind 190º 16kt. Gust 29kt. Visibility 10km or more. Broken Clouds 1600ft.
Temporarly from till Visibility 3100m. Light Snow blowing Snow . Overcast 1100ft.

Brut: TAF UWKD 162000Z 1621/1721 24005MPS 9999 BKN016 TXM06/1721Z TNM10/1702Z TEMPO 1621/1703 5000 -SN BECMG 1703/1705 20005G12MPS BECMG 1715/1717 19008G15MPS TEMPO 1718/1721 3100 -SN BLSN OVC011

Radar și nowcast de precipitații pentru 55.61°N 49.28°E

Burniță
Ușoară
Moderat
Greu
Foarte greu
Grindină

Markerul de locație este plasat în 55.61°N 49.28°E. Această animație arată radarul de precipitații pentru ultima oră, precum și o 1h prognoză. Ploaia sau ninsoarea slabă ar putea fi invizibilă pentru radar. Intensitatea precipitațiilor este codificată prin culori, de la albastru deschis la portocaliu.

Imagini satelitare și ploaie pentru 55.61°N 49.28°E

Markerul cu locaţia este poziţionat pe 55.61°N 49.28°E. [Mai mult]

Imaginea satelitară în timp real combină lumina vizibilă din timpul zilei cu radiația cu infraroșu din timpul nopții. Pe timp de noapte, imaginea nu este întunecată, deoarece radiația cu infraroșu poate detecta diferențele de temperatură. Din păcate, norii joși și ceața sunt greu de recunoscut față de temperatura de la sol, din această cauză putând fi invizibili pe timp de noapte. Imaginile satelitare Meteosat pentru Europa sunt actualizate în timp real din 5 în 5 minute. Imaginile GOES-16/GOES-17 (America de Nord și de Sud) și Himawari (Asia) sunt actualizate din 10 în 10 minute.

Toate drepturile rezervate 2022 EUMETSAT / meteoblue. / Toate drepturile rezervate 2022 meteoblue